Time;durP1;ratioP1;P1;durP2;ratioP2;P2;SDS_P1;SDS_P2;PMS_P1;PMS_P2;Temp;Humidity;BMP_temperature;BMP_pressure;BME280_temperature;BME280_humidity;BME280_pressure;Samples;Min_cycle;Max_cycle;Signal;HPM_P1;HPM_P2
2021/06/30 00:03:24;;;;;;;15.20;6.83;;;;;;;;;;10332196;28;20200;-63
2021/06/30 00:08:21;;;;;;;14.63;7.00;;;;;;;;;;10328631;28;20127;-63
2021/06/30 00:13:21;;;;;;;15.53;6.83;;;;;;;;;;10340139;28;20031;-64
2021/06/30 00:18:23;;;;;;;15.13;7.68;;;;;;;;;;10324732;28;20036;-63
2021/06/30 00:23:20;;;;;;;17.55;7.40;;;;;;;;;;10313333;28;20032;-63
2021/06/30 00:28:17;;;;;;;12.83;6.93;;;;;;;;;;10324580;28;20047;-62
2021/06/30 00:33:15;;;;;;;20.90;7.80;;;;;;;;;;10326611;28;20040;-62
2021/06/30 00:38:12;;;;;;;13.20;7.03;;;;;;;;;;10319065;28;20468;-61
2021/06/30 00:43:10;;;;;;;16.00;7.70;;;;;;;;;;10315285;28;20034;-62
2021/06/30 00:48:09;;;;;;;14.65;6.97;;;;;;;;;;10326736;28;20720;-66
2021/06/30 00:53:06;;;;;;;18.63;7.60;;;;;;;;;;10315745;28;20026;-60
2021/06/30 00:58:04;;;;;;;21.67;7.60;;;;;;;;;;10325938;28;20099;-64
2021/06/30 01:03:02;;;;;;;16.17;7.80;;;;;;;;;;10335180;28;20406;-66
2021/06/30 01:07:59;;;;;;;15.80;7.57;;;;;;;;;;10331411;28;20025;-61
2021/06/30 01:12:57;;;;;;;11.53;7.00;;;;;;;;;;10324858;28;20035;-63
2021/06/30 01:17:54;;;;;;;16.40;7.27;;;;;;;;;;10334907;28;20123;-65
2021/06/30 01:23:02;;;;;;;12.60;6.97;;;;;;;;;;10332866;28;20079;-64
2021/06/30 01:28:00;;;;;;;18.63;8.18;;;;;;;;;;10325563;28;20047;-65
2021/06/30 01:32:58;;;;;;;10.40;7.07;;;;;;;;;;10333972;28;20374;-64
2021/06/30 01:37:55;;;;;;;16.20;7.97;;;;;;;;;;10326893;28;20109;-65
2021/06/30 01:42:55;;;;;;;15.53;7.83;;;;;;;;;;10322820;28;20427;-64
2021/06/30 01:47:52;;;;;;;13.00;6.97;;;;;;;;;;10315635;28;20044;-63
2021/06/30 01:52:50;;;;;;;23.77;7.90;;;;;;;;;;10324903;28;20037;-63
2021/06/30 01:57:48;;;;;;;17.57;7.93;;;;;;;;;;10328948;28;20111;-64
2021/06/30 02:02:47;;;;;;;20.92;7.82;;;;;;;;;;10334492;28;20155;-63
2021/06/30 02:07:45;;;;;;;17.60;7.97;;;;;;;;;;10322526;28;20592;-63
2021/06/30 02:12:43;;;;;;;14.13;8.15;;;;;;;;;;10331215;28;20037;-63
2021/06/30 02:17:40;;;;;;;16.27;8.13;;;;;;;;;;10327824;28;20524;-65
2021/06/30 02:22:39;;;;;;;19.57;8.80;;;;;;;;;;10341721;28;20466;-63
2021/06/30 02:27:37;;;;;;;15.98;7.80;;;;;;;;;;10341411;28;20200;-66
2021/06/30 02:32:34;;;;;;;17.90;8.43;;;;;;;;;;10341782;28;20057;-63
2021/06/30 02:37:32;;;;;;;16.65;8.05;;;;;;;;;;10341159;28;20106;-64
2021/06/30 02:42:29;;;;;;;16.70;8.43;;;;;;;;;;10344788;28;20037;-66
2021/06/30 02:47:27;;;;;;;16.57;8.00;;;;;;;;;;10348912;28;20063;-66
2021/06/30 02:52:24;;;;;;;20.23;8.40;;;;;;;;;;10348632;28;20521;-65
2021/06/30 02:57:22;;;;;;;14.47;7.43;;;;;;;;;;10348140;28;20052;-65
2021/06/30 03:02:19;;;;;;;15.77;7.63;;;;;;;;;;10346751;28;20041;-64
2021/06/30 03:07:16;;;;;;;15.43;8.17;;;;;;;;;;10347407;28;20040;-62
2021/06/30 03:12:14;;;;;;;17.83;8.07;;;;;;;;;;10344190;28;20056;-66
2021/06/30 03:17:11;;;;;;;20.70;8.97;;;;;;;;;;10338090;28;20041;-67
2021/06/30 03:22:08;;;;;;;20.67;8.60;;;;;;;;;;10347469;28;20045;-64
2021/06/30 03:27:06;;;;;;;18.83;8.63;;;;;;;;;;10341049;28;20043;-65
2021/06/30 03:32:04;;;;;;;17.20;8.03;;;;;;;;;;10334645;28;20087;-66
2021/06/30 03:37:01;;;;;;;18.13;8.60;;;;;;;;;;10346453;28;20037;-65
2021/06/30 03:41:58;;;;;;;16.93;8.77;;;;;;;;;;10344714;28;20348;-66
2021/06/30 03:46:56;;;;;;;17.93;9.53;;;;;;;;;;10345947;28;20099;-64
2021/06/30 03:51:53;;;;;;;20.57;8.67;;;;;;;;;;10336381;28;20037;-64
2021/06/30 03:56:51;;;;;;;19.77;8.90;;;;;;;;;;10345777;28;20525;-64
2021/06/30 04:01:51;;;;;;;20.67;9.25;;;;;;;;;;10337453;28;20049;-64
2021/06/30 04:06:48;;;;;;;19.45;8.70;;;;;;;;;;10343433;28;20037;-64
2021/06/30 04:11:45;;;;;;;21.03;8.87;;;;;;;;;;10339493;28;20037;-64
2021/06/30 04:16:43;;;;;;;23.10;9.47;;;;;;;;;;10343832;28;20040;-64
2021/06/30 04:21:40;;;;;;;19.67;9.43;;;;;;;;;;10341167;28;20040;-64
2021/06/30 04:26:38;;;;;;;21.70;9.67;;;;;;;;;;10344374;28;20114;-64
2021/06/30 04:31:35;;;;;;;17.27;9.03;;;;;;;;;;10343062;28;20075;-66
2021/06/30 04:36:33;;;;;;;17.03;10.03;;;;;;;;;;10301786;28;20037;-65
2021/06/30 04:41:30;;;;;;;17.23;9.37;;;;;;;;;;10321993;28;20056;-65
2021/06/30 04:46:27;;;;;;;21.67;10.40;;;;;;;;;;10315968;28;20451;-67
2021/06/30 04:51:25;;;;;;;24.23;10.50;;;;;;;;;;10325246;28;20124;-65
2021/06/30 04:56:29;;;;;;;21.27;9.70;;;;;;;;;;10321203;28;20051;-63
2021/06/30 05:01:26;;;;;;;19.38;10.07;;;;;;;;;;10310503;28;20059;-63
2021/06/30 05:06:24;;;;;;;20.43;9.90;;;;;;;;;;10319414;28;20064;-64
2021/06/30 05:11:21;;;;;;;17.40;9.37;;;;;;;;;;10319800;28;20047;-63
2021/06/30 05:16:18;;;;;;;19.93;10.10;;;;;;;;;;10314687;28;20121;-63
2021/06/30 05:21:16;;;;;;;16.23;9.70;;;;;;;;;;10314529;28;20120;-64
2021/06/30 05:26:14;;;;;;;20.93;9.50;;;;;;;;;;10318361;28;20043;-64
2021/06/30 05:31:11;;;;;;;18.33;9.53;;;;;;;;;;10316615;28;20040;-64
2021/06/30 05:36:08;;;;;;;21.60;9.87;;;;;;;;;;10318533;28;20045;-68
2021/06/30 05:41:06;;;;;;;16.73;9.00;;;;;;;;;;10309232;28;20368;-63
2021/06/30 05:46:04;;;;;;;18.93;8.70;;;;;;;;;;10320358;28;20013;-65
2021/06/30 05:51:01;;;;;;;13.68;8.32;;;;;;;;;;10319351;28;20033;-63
2021/06/30 05:55:59;;;;;;;14.87;8.70;;;;;;;;;;10311786;28;20017;-64
2021/06/30 06:00:56;;;;;;;15.50;8.77;;;;;;;;;;10316774;28;20153;-63
2021/06/30 06:05:54;;;;;;;16.17;8.50;;;;;;;;;;10313746;28;20028;-64
2021/06/30 06:10:51;;;;;;;18.37;9.00;;;;;;;;;;10311405;28;20098;-65
2021/06/30 06:15:49;;;;;;;16.30;9.07;;;;;;;;;;10318097;28;20128;-66
2021/06/30 06:20:46;;;;;;;13.47;8.80;;;;;;;;;;10321282;28;20128;-64
2021/06/30 06:25:43;;;;;;;17.87;8.30;;;;;;;;;;10320601;28;20041;-65
2021/06/30 06:30:41;;;;;;;15.90;8.10;;;;;;;;;;10317428;28;20033;-63
2021/06/30 06:35:41;;;;;;;16.30;8.67;;;;;;;;;;10316572;28;20040;-62
2021/06/30 06:40:39;;;;;;;14.20;8.52;;;;;;;;;;10320799;28;20604;-65
2021/06/30 06:45:36;;;;;;;15.27;8.53;;;;;;;;;;10323447;28;20244;-62
2021/06/30 06:50:34;;;;;;;18.33;8.47;;;;;;;;;;10315191;28;20434;-64
2021/06/30 06:55:33;;;;;;;20.93;9.13;;;;;;;;;;10313382;28;20272;-64
2021/06/30 07:00:30;;;;;;;18.83;9.10;;;;;;;;;;10321639;28;20871;-61
2021/06/30 07:05:27;;;;;;;24.87;9.57;;;;;;;;;;10313667;28;20049;-65
2021/06/30 07:10:25;;;;;;;23.07;10.57;;;;;;;;;;10318348;28;20033;-63
2021/06/30 07:15:22;;;;;;;23.47;10.70;;;;;;;;;;10311604;28;20347;-65
2021/06/30 07:20:20;;;;;;;22.17;10.50;;;;;;;;;;10320861;28;20040;-64
2021/06/30 07:25:19;;;;;;;19.57;10.30;;;;;;;;;;10299417;28;20029;-66
2021/06/30 07:30:17;;;;;;;24.77;10.50;;;;;;;;;;10305353;28;20037;-65
2021/06/30 07:35:14;;;;;;;22.30;10.37;;;;;;;;;;10312976;28;20037;-65
2021/06/30 07:40:12;;;;;;;19.73;10.07;;;;;;;;;;10315872;28;20311;-65
2021/06/30 07:45:10;;;;;;;18.80;11.02;;;;;;;;;;10315751;28;20041;-65
2021/06/30 07:50:08;;;;;;;20.43;10.60;;;;;;;;;;10312213;28;20502;-63
2021/06/30 07:55:05;;;;;;;;;;;;;;;;;;10317107;28;20040;-65
2021/06/30 08:00:04;;;;;;;25.20;10.75;;;;;;;;;;10313409;28;19919;-68
2021/06/30 08:05:09;;;;;;;20.40;10.75;;;;;;;;;;10310107;28;20457;-66
2021/06/30 08:10:08;;;;;;;18.83;10.20;;;;;;;;;;10305310;28;20037;-69
2021/06/30 08:15:06;;;;;;;18.27;9.75;;;;;;;;;;10313542;28;20092;-65
2021/06/30 08:20:04;;;;;;;;;;;;;;;;;;10306046;28;20271;-64
2021/06/30 08:25:01;;;;;;;18.77;9.40;;;;;;;;;;10304596;28;19920;-65
2021/06/30 08:30:00;;;;;;;16.00;9.90;;;;;;;;;;10302479;28;20050;-63
2021/06/30 08:34:58;;;;;;;18.50;9.00;;;;;;;;;;10286971;28;20091;-62
2021/06/30 08:39:55;;;;;;;22.77;10.50;;;;;;;;;;10312789;28;20052;-64
2021/06/30 08:44:53;;;;;;;18.90;9.52;;;;;;;;;;10310418;28;20053;-64
2021/06/30 08:49:51;;;;;;;19.23;10.33;;;;;;;;;;10311372;28;20508;-63
2021/06/30 08:54:50;;;;;;;20.73;10.10;;;;;;;;;;10309534;28;20102;-63
2021/06/30 08:59:47;;;;;;;15.73;9.60;;;;;;;;;;10293786;28;20041;-69
2021/06/30 09:04:45;;;;;;;16.80;9.40;;;;;;;;;;10317193;28;20412;-64
2021/06/30 09:09:42;;;;;;;14.60;9.73;;;;;;;;;;10317855;28;20048;-65
2021/06/30 09:14:41;;;;;;;19.67;9.18;;;;;;;;;;10301496;28;20090;-64
2021/06/30 09:19:38;;;;;;;;;;;;;;;;;;10318683;28;20116;-64
2021/06/30 09:24:38;;;;;;;15.17;8.50;;;;;;;;;;10323845;28;19992;-65
2021/06/30 09:29:38;;;;;;;12.25;7.72;;;;;;;;;;10315841;28;20508;-64
2021/06/30 09:34:35;;;;;;;14.15;7.03;;;;;;;;;;10307137;28;20124;-65
2021/06/30 09:39:38;;;;;;;11.67;7.13;;;;;;;;;;10312718;28;20128;-64
2021/06/30 09:44:36;;;;;;;11.93;6.82;;;;;;;;;;10281129;28;20413;-70
2021/06/30 09:49:36;;;;;;;7.85;5.90;;;;;;;;;;10264231;28;21468;-69
2021/06/30 09:54:34;;;;;;;10.18;6.07;;;;;;;;;;10291596;28;21059;-69
2021/06/30 09:59:36;;;;;;;7.72;5.65;;;;;;;;;;10292921;28;20071;-67
2021/06/30 10:04:33;;;;;;;10.57;6.38;;;;;;;;;;10303926;28;20599;-63
2021/06/30 10:09:31;;;;;;;8.53;5.73;;;;;;;;;;10288175;28;20051;-69
2021/06/30 10:14:29;;;;;;;9.15;5.80;;;;;;;;;;10293556;28;20275;-69
2021/06/30 10:19:26;;;;;;;;;;;;;;;;;;10298036;28;20520;-66
2021/06/30 10:24:24;;;;;;;6.00;5.07;;;;;;;;;;10308840;28;20013;-66
2021/06/30 10:29:23;;;;;;;8.23;5.22;;;;;;;;;;10305520;28;20025;-64
2021/06/30 10:34:31;;;;;;;8.82;5.50;;;;;;;;;;10300570;28;20095;-66
2021/06/30 10:39:34;;;;;;;7.03;4.78;;;;;;;;;;10306825;28;20055;-66
2021/06/30 10:44:44;;;;;;;7.05;5.30;;;;;;;;;;10299137;28;20155;-64
2021/06/30 10:49:41;;;;;;;6.57;4.57;;;;;;;;;;10304656;28;20041;-66
2021/06/30 10:54:40;;;;;;;;;;;;;;;;;;10285533;28;21152;-69
2021/06/30 11:00:16;;;;;;;6.53;4.85;;;;;;;;;;10298554;28;19928;-63
2021/06/30 11:05:13;;;;;;;6.05;4.63;;;;;;;;;;10223033;28;20041;-63
2021/06/30 11:10:10;;;;;;;;;;;;;;;;;;10293138;28;20159;-67
2021/06/30 11:15:08;;;;;;;6.68;4.45;;;;;;;;;;10313564;28;19921;-67
2021/06/30 11:20:05;;;;;;;;;;;;;;;;;;10306445;28;20509;-64
2021/06/30 11:25:03;;;;;;;7.35;4.68;;;;;;;;;;10308966;28;20008;-64
2021/06/30 11:30:02;;;;;;;10.43;5.07;;;;;;;;;;10310720;28;20488;-65
2021/06/30 11:35:09;;;;;;;7.57;4.65;;;;;;;;;;10307510;28;20044;-65
2021/06/30 11:40:15;;;;;;;8.95;5.45;;;;;;;;;;10312789;28;20049;-65
2021/06/30 11:45:23;;;;;;;8.95;5.15;;;;;;;;;;10309938;28;20045;-67
2021/06/30 11:50:21;;;;;;;;;;;;;;;;;;10302034;28;20044;-65
2021/06/30 11:55:18;;;;;;;9.15;6.00;;;;;;;;;;10296017;28;19920;-64
2021/06/30 12:00:16;;;;;;;10.20;5.72;;;;;;;;;;10307248;28;20041;-65
2021/06/30 12:05:14;;;;;;;13.18;6.22;;;;;;;;;;10305038;28;20415;-66
2021/06/30 12:10:12;;;;;;;10.77;6.10;;;;;;;;;;10304740;28;20037;-68
2021/06/30 12:15:10;;;;;;;11.05;6.30;;;;;;;;;;10311780;28;20380;-71
2021/06/30 12:20:08;;;;;;;14.00;6.57;;;;;;;;;;10307313;28;20043;-70
2021/06/30 12:25:07;;;;;;;9.15;6.35;;;;;;;;;;10298931;28;20049;-64
2021/06/30 12:30:09;;;;;;;12.70;6.57;;;;;;;;;;10305167;28;20543;-65
2021/06/30 12:35:07;;;;;;;12.25;7.03;;;;;;;;;;10304416;28;20498;-64
2021/06/30 12:40:08;;;;;;;10.88;7.30;;;;;;;;;;10304012;28;21085;-65
2021/06/30 12:45:07;;;;;;;13.70;7.43;;;;;;;;;;10301811;28;20528;-65
2021/06/30 12:50:06;;;;;;;10.60;6.20;;;;;;;;;;10305002;28;20052;-66
2021/06/30 12:55:03;;;;;;;14.07;6.38;;;;;;;;;;10301493;28;20052;-63
2021/06/30 13:00:07;;;;;;;11.83;6.90;;;;;;;;;;10305505;28;20052;-67
2021/06/30 13:05:24;;;;;;;11.57;6.53;;;;;;;;;;10302203;28;20043;-67
2021/06/30 13:10:21;;;;;;;13.63;7.03;;;;;;;;;;10303150;28;20048;-66
2021/06/30 13:15:23;;;;;;;13.60;6.50;;;;;;;;;;10302645;28;20098;-70
2021/06/30 13:20:21;;;;;;;11.73;6.95;;;;;;;;;;10302973;28;20726;-66
2021/06/30 13:25:29;;;;;;;10.38;6.43;;;;;;;;;;10301542;28;20045;-63
2021/06/30 13:35:36;;;;;;;10.25;6.05;;;;;;;;;;10302631;28;20431;-67
2021/06/30 13:40:41;;;;;;;9.10;5.97;;;;;;;;;;10299409;28;20036;-70
2021/06/30 13:45:39;;;;;;;8.15;5.93;;;;;;;;;;10278280;28;21263;-65
2021/06/30 13:50:38;;;;;;;10.02;6.10;;;;;;;;;;10294331;28;20045;-68
2021/06/30 13:55:35;;;;;;;8.43;5.78;;;;;;;;;;10301937;28;20063;-66
2021/06/30 14:00:33;;;;;;;10.35;5.88;;;;;;;;;;10298446;28;20041;-66
2021/06/30 14:05:31;;;;;;;13.15;6.25;;;;;;;;;;10295560;28;20083;-63
2021/06/30 14:10:30;;;;;;;9.30;5.38;;;;;;;;;;10304758;28;20775;-63
2021/06/30 14:15:27;;;;;;;9.50;6.20;;;;;;;;;;10312134;28;20056;-63
2021/06/30 14:20:24;;;;;;;;;;;;;;;;;;10306495;28;20049;-65
2021/06/30 14:25:22;;;;;;;9.93;6.18;;;;;;;;;;10300025;28;19928;-66
2021/06/30 14:30:19;;;;;;;11.43;6.30;;;;;;;;;;10303278;28;20579;-67
2021/06/30 14:35:16;;;;;;;;;;;;;;;;;;10307567;28;21150;-64
2021/06/30 14:40:15;;;;;;;11.02;6.97;;;;;;;;;;10312226;28;19971;-69
2021/06/30 14:45:15;;;;;;;9.60;6.45;;;;;;;;;;10307020;28;20035;-63
2021/06/30 14:50:14;;;;;;;10.05;7.13;;;;;;;;;;10307368;28;20110;-61
2021/06/30 14:55:11;;;;;;;12.30;7.35;;;;;;;;;;10312358;28;20421;-64
2021/06/30 15:00:08;;;;;;;;;;;;;;;;;;10311302;28;20036;-67
2021/06/30 15:05:06;;;;;;;10.43;7.20;;;;;;;;;;10306834;28;19951;-64
2021/06/30 15:10:03;;;;;;;;;;;;;;;;;;10309329;28;20048;-63
2021/06/30 15:15:01;;;;;;;9.32;7.47;;;;;;;;;;10327176;28;20698;-63
2021/06/30 15:19:58;;;;;;;;;;;;;;;;;;10309152;28;20037;-65
2021/06/30 15:24:56;;;;;;;12.63;8.13;;;;;;;;;;10311218;28;19927;-66
2021/06/30 15:29:54;;;;;;;;;;;;;;;;;;10292970;28;20324;-65
2021/06/30 15:34:53;;;;;;;16.67;9.27;;;;;;;;;;10275244;28;20020;-68
2021/06/30 15:39:57;;;;;;;14.45;9.15;;;;;;;;;;10294297;28;20389;-66
2021/06/30 15:44:55;;;;;;;14.23;8.88;;;;;;;;;;10303706;28;20037;-62
2021/06/30 15:49:52;;;;;;;;;;;;;;;;;;10310122;28;20044;-62
2021/06/30 15:54:50;;;;;;;14.48;9.50;;;;;;;;;;10303617;28;19927;-61
2021/06/30 15:59:47;;;;;;;;;;;;;;;;;;10314651;28;20413;-63
2021/06/30 16:04:45;;;;;;;16.98;9.45;;;;;;;;;;10309202;28;20340;-65
2021/06/30 16:09:42;;;;;;;15.90;9.70;;;;;;;;;;10314637;28;20091;-64
2021/06/30 16:14:39;;;;;;;;;;;;;;;;;;10311232;28;20052;-67
2021/06/30 16:19:37;;;;;;;15.37;9.53;;;;;;;;;;10316352;28;20324;-65
2021/06/30 16:24:34;;;;;;;;;;;;;;;;;;10311619;28;20032;-64
2021/06/30 16:29:33;;;;;;;13.38;9.18;;;;;;;;;;10312439;28;19925;-66
2021/06/30 16:34:30;;;;;;;13.18;8.88;;;;;;;;;;10304646;28;20048;-63
2021/06/30 16:39:28;;;;;;;12.80;9.30;;;;;;;;;;10310606;28;20089;-65
2021/06/30 16:44:25;;;;;;;17.13;9.70;;;;;;;;;;10323075;28;21400;-63
2021/06/30 16:49:23;;;;;;;17.53;10.00;;;;;;;;;;10315315;28;20094;-68
2021/06/30 16:54:20;;;;;;;;;;;;;;;;;;10309510;28;20041;-69
2021/06/30 16:59:18;;;;;;;18.77;10.27;;;;;;;;;;10317415;28;19913;-64
2021/06/30 17:04:15;;;;;;;17.00;10.88;;;;;;;;;;10310865;28;20094;-68
2021/06/30 17:09:13;;;;;;;16.27;10.47;;;;;;;;;;10307911;28;20075;-63
2021/06/30 17:14:10;;;;;;;18.30;10.65;;;;;;;;;;10304388;28;20103;-65
2021/06/30 17:19:08;;;;;;;19.63;11.87;;;;;;;;;;10308082;28;20674;-64
2021/06/30 17:24:05;;;;;;;16.30;9.73;;;;;;;;;;10304848;28;20910;-67
2021/06/30 17:29:03;;;;;;;14.00;10.23;;;;;;;;;;10306216;28;20059;-67
2021/06/30 17:34:00;;;;;;;18.00;10.10;;;;;;;;;;10308231;28;20163;-67
2021/06/30 17:38:58;;;;;;;15.70;9.37;;;;;;;;;;10308578;28;20079;-63
2021/06/30 17:43:55;;;;;;;15.67;9.13;;;;;;;;;;10307003;28;20048;-66
2021/06/30 17:48:52;;;;;;;14.40;9.03;;;;;;;;;;10302026;28;20522;-66
2021/06/30 17:53:50;;;;;;;12.17;8.37;;;;;;;;;;10309514;28;20347;-65
2021/06/30 17:58:47;;;;;;;15.37;9.37;;;;;;;;;;10303058;28;20538;-63
2021/06/30 18:03:45;;;;;;;13.47;9.13;;;;;;;;;;10304525;28;20071;-61
2021/06/30 18:08:42;;;;;;;12.57;8.30;;;;;;;;;;10314603;28;20040;-65
2021/06/30 18:13:40;;;;;;;9.90;7.60;;;;;;;;;;10325151;28;20043;-63
2021/06/30 18:18:37;;;;;;;15.13;8.93;;;;;;;;;;10321590;28;20029;-62
2021/06/30 18:23:35;;;;;;;17.40;9.50;;;;;;;;;;10328069;28;20036;-61
2021/06/30 18:28:32;;;;;;;16.37;10.10;;;;;;;;;;10327590;28;20447;-64
2021/06/30 18:33:30;;;;;;;18.97;10.93;;;;;;;;;;10323507;28;20025;-65
2021/06/30 18:38:28;;;;;;;18.30;10.60;;;;;;;;;;10333605;28;20043;-64
2021/06/30 18:43:25;;;;;;;17.80;11.07;;;;;;;;;;10329462;28;20104;-64
2021/06/30 18:48:23;;;;;;;17.23;10.93;;;;;;;;;;10327893;28;20580;-64
2021/06/30 18:53:20;;;;;;;16.90;10.33;;;;;;;;;;10327226;28;20070;-66
2021/06/30 18:58:18;;;;;;;14.43;9.90;;;;;;;;;;10328884;28;20052;-61
2021/06/30 19:03:15;;;;;;;13.13;9.70;;;;;;;;;;10329729;28;20107;-64
2021/06/30 19:08:13;;;;;;;18.40;9.80;;;;;;;;;;10332106;28;20711;-63
2021/06/30 19:13:10;;;;;;;17.20;9.52;;;;;;;;;;10324799;28;20272;-61
2021/06/30 19:18:08;;;;;;;13.40;8.57;;;;;;;;;;10324655;28;20110;-64
2021/06/30 19:23:05;;;;;;;18.60;9.80;;;;;;;;;;10331727;28;20531;-61
2021/06/30 19:28:03;;;;;;;17.92;8.80;;;;;;;;;;10319826;28;20495;-62
2021/06/30 19:33:02;;;;;;;17.40;9.13;;;;;;;;;;10316928;28;20033;-65
2021/06/30 19:37:59;;;;;;;19.77;9.70;;;;;;;;;;10316896;28;20075;-63
2021/06/30 19:42:57;;;;;;;24.27;11.00;;;;;;;;;;10312460;28;20121;-62
2021/06/30 19:47:56;;;;;;;22.10;10.90;;;;;;;;;;10326770;28;20040;-63
2021/06/30 19:52:55;;;;;;;21.30;10.77;;;;;;;;;;10320401;28;20514;-64
2021/06/30 19:57:54;;;;;;;21.33;10.90;;;;;;;;;;10316982;28;20041;-64
2021/06/30 20:02:51;;;;;;;;;;;;;;;;;;10319498;28;20383;-63
2021/06/30 20:07:48;;;;;;;28.25;12.93;;;;;;;;;;10326098;28;19917;-63
2021/06/30 20:12:46;;;;;;;27.57;12.20;;;;;;;;;;10323840;28;20037;-62
2021/06/30 20:17:44;;;;;;;28.13;13.23;;;;;;;;;;10320056;28;20128;-62
2021/06/30 20:22:41;;;;;;;31.92;11.98;;;;;;;;;;10324636;28;20084;-65
2021/06/30 20:27:39;;;;;;;25.50;12.20;;;;;;;;;;10320979;28;20093;-60
2021/06/30 20:32:36;;;;;;;29.13;12.10;;;;;;;;;;10325170;28;20036;-63
2021/06/30 20:37:36;;;;;;;26.02;11.80;;;;;;;;;;10319815;28;20046;-67
2021/06/30 20:42:39;;;;;;;24.65;12.77;;;;;;;;;;10313110;28;20040;-63
2021/06/30 20:47:37;;;;;;;26.55;12.07;;;;;;;;;;10316265;28;20445;-64
2021/06/30 20:52:34;;;;;;;25.45;12.50;;;;;;;;;;10317731;28;20033;-63
2021/06/30 20:57:32;;;;;;;26.57;12.37;;;;;;;;;;10321030;28;20423;-62
2021/06/30 21:02:29;;;;;;;32.47;13.03;;;;;;;;;;10318346;28;20041;-63
2021/06/30 21:07:27;;;;;;;25.47;11.10;;;;;;;;;;10316829;28;20498;-59
2021/06/30 21:12:24;;;;;;;23.97;11.70;;;;;;;;;;10319468;28;20043;-60
2021/06/30 21:17:21;;;;;;;24.47;12.30;;;;;;;;;;10314668;28;20041;-61
2021/06/30 21:22:19;;;;;;;28.67;12.93;;;;;;;;;;10319356;28;20033;-63
2021/06/30 21:27:16;;;;;;;24.97;12.33;;;;;;;;;;10326674;28;20439;-57
2021/06/30 21:32:14;;;;;;;26.13;12.43;;;;;;;;;;10317588;28;20029;-61
2021/06/30 21:37:12;;;;;;;23.17;11.20;;;;;;;;;;10319552;28;20041;-60
2021/06/30 21:42:09;;;;;;;21.73;12.23;;;;;;;;;;10317945;28;20414;-62
2021/06/30 21:47:07;;;;;;;22.07;10.70;;;;;;;;;;10325853;28;20098;-59
2021/06/30 21:52:04;;;;;;;26.50;11.57;;;;;;;;;;10326175;28;21164;-62
2021/06/30 21:57:02;;;;;;;19.43;10.23;;;;;;;;;;10316189;28;20416;-58
2021/06/30 22:02:01;;;;;;;18.98;10.18;;;;;;;;;;10322657;28;20037;-62
2021/06/30 22:06:59;;;;;;;;;;;;;;;;;;10326095;28;20602;-62
2021/06/30 22:11:57;;;;;;;19.20;10.13;;;;;;;;;;10315503;28;19916;-60
2021/06/30 22:16:54;;;;;;;21.13;9.97;;;;;;;;;;10302877;28;20033;-59
2021/06/30 22:22:05;;;;;;;17.83;9.70;;;;;;;;;;10326447;28;20128;-62
2021/06/30 22:27:03;;;;;;;14.95;8.70;;;;;;;;;;10320241;28;20447;-61
2021/06/30 22:32:00;;;;;;;19.77;9.47;;;;;;;;;;10328153;28;20112;-63
2021/06/30 22:36:57;;;;;;;25.13;9.93;;;;;;;;;;10316303;28;20038;-57
2021/06/30 22:41:55;;;;;;;18.40;9.27;;;;;;;;;;10321265;28;20119;-62
2021/06/30 22:46:52;;;;;;;18.27;9.97;;;;;;;;;;10319321;28;20033;-60
2021/06/30 22:51:49;;;;;;;21.10;9.60;;;;;;;;;;10316007;28;20044;-59
2021/06/30 22:56:53;;;;;;;22.23;9.53;;;;;;;;;;10329713;28;20029;-62
2021/06/30 23:01:51;;;;;;;20.50;10.50;;;;;;;;;;10323237;28;20085;-63
2021/06/30 23:06:49;;;;;;;15.80;8.27;;;;;;;;;;10324854;28;20029;-62
2021/06/30 23:11:47;;;;;;;22.03;9.50;;;;;;;;;;10319330;28;20049;-63
2021/06/30 23:16:44;;;;;;;19.80;9.30;;;;;;;;;;10325268;28;20040;-64
2021/06/30 23:21:42;;;;;;;20.93;8.97;;;;;;;;;;10321364;28;20091;-64
2021/06/30 23:26:39;;;;;;;19.23;8.90;;;;;;;;;;10318703;28;20037;-65
2021/06/30 23:31:36;;;;;;;20.03;9.03;;;;;;;;;;10332935;28;20041;-63
2021/06/30 23:36:34;;;;;;;16.37;8.10;;;;;;;;;;10321014;28;20052;-66
2021/06/30 23:41:32;;;;;;;23.33;8.67;;;;;;;;;;10333855;28;20044;-62
2021/06/30 23:46:29;;;;;;;14.20;8.03;;;;;;;;;;10328465;28;20516;-63
2021/06/30 23:51:27;;;;;;;17.63;8.73;;;;;;;;;;10338422;28;20047;-64
2021/06/30 23:56:46;;;;;;;15.07;8.17;;;;;;;;;;10331210;28;20043;-64
